createdAt,value
2018-06-18T00:00:45.725Z,17.25
2018-06-18T00:02:50.599Z,17.62
2018-06-18T00:04:55.644Z,16.88
2018-06-18T00:07:00.365Z,17.87
2018-06-18T00:09:08.447Z,17.85
2018-06-18T00:11:13.182Z,16.86
2018-06-18T00:13:17.912Z,17.99
2018-06-18T00:15:22.570Z,17.81
2018-06-18T00:17:27.287Z,17.82
2018-06-18T00:19:31.902Z,17.95
2018-06-18T00:21:36.572Z,18.03
2018-06-18T00:23:41.451Z,17.84
2018-06-18T00:25:46.213Z,17.88
2018-06-18T00:27:51.127Z,17.75
2018-06-18T00:29:56.011Z,17.81
2018-06-18T00:32:00.678Z,17.68
2018-06-18T00:34:05.439Z,17.23
2018-06-18T00:36:10.218Z,17.81
2018-06-18T00:38:15.036Z,17.68
2018-06-18T00:40:23.222Z,17.83
2018-06-18T00:42:29.063Z,17.85
2018-06-18T00:44:33.730Z,17.98
2018-06-18T00:46:38.565Z,17.51
2018-06-18T00:48:43.250Z,17.86
2018-06-18T00:50:48.593Z,17.82
2018-06-18T00:52:54.001Z,18.08
2018-06-18T00:54:58.859Z,17.85
2018-06-18T00:57:03.474Z,17.74
2018-06-18T00:59:08.258Z,17.65
2018-06-18T01:01:13.662Z,17.64
2018-06-18T01:03:18.334Z,17.65
2018-06-18T01:05:23.028Z,17.62
2018-06-18T01:07:27.736Z,17.63
2018-06-18T01:09:32.361Z,17.70
2018-06-18T01:11:36.997Z,17.65
2018-06-18T01:13:41.611Z,17.62
2018-06-18T01:15:46.405Z,17.62
2018-06-18T01:17:51.053Z,17.65
2018-06-18T01:19:55.681Z,17.62
2018-06-18T01:22:00.313Z,17.60
2018-06-18T01:24:51.902Z,17.59
2018-06-18T01:26:56.545Z,17.59
2018-06-18T01:29:01.192Z,17.62
2018-06-18T01:31:06.020Z,17.35
2018-06-18T01:33:10.705Z,17.66
2018-06-18T01:35:15.338Z,17.64
2018-06-18T01:37:20.069Z,17.60
2018-06-18T01:39:25.068Z,17.55
2018-06-18T01:41:29.763Z,17.73
2018-06-18T01:43:34.380Z,17.69
2018-06-18T01:45:39.145Z,17.61
2018-06-18T01:47:43.854Z,17.63
2018-06-18T01:49:48.479Z,17.50
2018-06-18T01:51:53.190Z,17.57
2018-06-18T01:53:57.813Z,17.56
2018-06-18T01:56:02.467Z,17.56
2018-06-18T01:58:07.451Z,17.56
2018-06-18T02:00:12.122Z,17.58
2018-06-18T02:02:16.756Z,17.58
2018-06-18T02:04:21.544Z,17.58
2018-06-18T02:06:26.260Z,17.04
2018-06-18T02:08:31.092Z,17.50
2018-06-18T02:10:35.751Z,17.56
2018-06-18T02:12:40.433Z,17.55
2018-06-18T02:14:45.111Z,17.54
2018-06-18T02:16:49.829Z,17.51
2018-06-18T02:18:54.507Z,17.54
2018-06-18T02:20:58.882Z,17.54
2018-06-18T02:23:03.616Z,17.66
2018-06-18T02:25:08.306Z,17.47
2018-06-18T02:27:17.013Z,17.51
2018-06-18T02:29:26.717Z,17.61
2018-06-18T02:31:36.555Z,17.60
2018-06-18T02:33:46.236Z,17.56
2018-06-18T02:35:56.828Z,17.62
2018-06-18T02:38:06.752Z,17.59
2018-06-18T02:40:16.482Z,17.51
2018-06-18T02:42:21.196Z,17.53
2018-06-18T02:44:26.081Z,17.47
2018-06-18T02:46:31.237Z,17.45
2018-06-18T02:48:35.905Z,17.44
2018-06-18T02:50:40.639Z,17.44
2018-06-18T02:52:49.481Z,17.39
2018-06-18T02:54:54.197Z,17.37
2018-06-18T02:57:03.658Z,17.38
2018-06-18T02:59:08.624Z,17.42
2018-06-18T03:01:13.391Z,17.37
2018-06-18T03:03:18.054Z,17.36
2018-06-18T03:05:22.694Z,17.36
2018-06-18T03:07:27.401Z,17.36
2018-06-18T03:09:32.020Z,17.32
2018-06-18T03:11:36.843Z,17.33
2018-06-18T03:13:41.544Z,17.35
2018-06-18T03:15:46.199Z,17.36
2018-06-18T03:17:50.997Z,17.37
2018-06-18T03:20:00.803Z,17.44
2018-06-18T03:22:10.681Z,17.35
2018-06-18T03:24:20.434Z,17.30
2018-06-18T03:26:30.211Z,17.15
2018-06-18T03:28:39.939Z,17.33
2018-06-18T03:30:44.625Z,17.42
2018-06-18T03:32:50.538Z,17.37
2018-06-18T03:34:55.171Z,17.35
2018-06-18T03:37:00.952Z,17.08
2018-06-18T03:39:09.311Z,17.34
2018-06-18T03:41:13.965Z,17.48
2018-06-18T03:43:18.696Z,17.42
2018-06-18T03:45:30.247Z,17.60
2018-06-18T03:47:34.865Z,17.52
2018-06-18T03:49:39.625Z,17.55
2018-06-18T03:51:44.332Z,17.52
2018-06-18T03:53:48.982Z,17.42
2018-06-18T03:55:57.752Z,17.40
2018-06-18T03:58:07.346Z,17.38
2018-06-18T04:00:13.299Z,17.44
2018-06-18T04:02:38.537Z,17.49
2018-06-18T04:04:56.818Z,17.65
2018-06-18T04:07:07.377Z,17.54
2018-06-18T04:09:17.347Z,17.52
2018-06-18T04:11:27.242Z,17.50
2018-06-18T04:13:32.020Z,17.48
2018-06-18T04:15:36.980Z,16.93
2018-06-18T04:17:41.817Z,17.38
2018-06-18T04:19:46.541Z,17.49
2018-06-18T04:21:51.418Z,17.55
2018-06-18T04:23:56.142Z,17.38
2018-06-18T04:26:01.358Z,17.51
2018-06-18T04:28:06.183Z,17.51
2018-06-18T04:30:10.964Z,17.47
2018-06-18T04:32:15.749Z,17.51
2018-06-18T04:34:35.522Z,17.47
2018-06-18T04:36:40.245Z,17.58
2018-06-18T04:38:44.931Z,17.64
2018-06-18T04:40:49.903Z,17.66
2018-06-18T04:43:00.117Z,17.63
2018-06-18T04:45:12.422Z,17.67
2018-06-18T04:47:27.744Z,17.64
2018-06-18T04:49:44.215Z,17.63
2018-06-18T04:51:55.230Z,17.49
2018-06-18T04:54:06.356Z,17.65
2018-06-18T04:56:15.172Z,17.63
2018-06-18T04:58:19.829Z,17.70
2018-06-18T05:00:43.940Z,17.77
2018-06-18T05:02:48.264Z,17.87
2018-06-18T05:04:53.258Z,17.54
2018-06-18T05:06:58.502Z,17.06
2018-06-18T05:09:40.271Z,17.97
2018-06-18T05:11:45.078Z,17.99
2018-06-18T05:13:50.164Z,17.83
2018-06-18T05:15:55.598Z,17.99
2018-06-18T05:18:00.367Z,17.94
2018-06-18T05:20:05.262Z,18.04
2018-06-18T05:22:10.130Z,18.21
2018-06-18T05:24:14.804Z,18.21
2018-06-18T05:26:20.088Z,18.18
2018-06-18T05:28:24.934Z,18.25
2018-06-18T05:30:31.489Z,18.27
2018-06-18T05:32:36.218Z,18.16
2018-06-18T05:34:41.043Z,18.37
2018-06-18T05:36:45.850Z,18.53
2018-06-18T05:38:51.108Z,18.48
2018-06-18T05:40:56.216Z,18.70
2018-06-18T05:43:00.940Z,18.58
2018-06-18T05:45:06.087Z,18.52
2018-06-18T05:47:10.899Z,18.58
2018-06-18T05:49:15.740Z,18.61
2018-06-18T05:51:21.240Z,18.57
2018-06-18T05:53:25.997Z,18.58
2018-06-18T05:55:30.818Z,18.72
2018-06-18T05:57:35.530Z,18.62
2018-06-18T05:59:40.276Z,18.63
2018-06-18T06:01:44.963Z,18.53
2018-06-18T06:03:49.767Z,18.49
2018-06-18T06:05:54.667Z,18.72
2018-06-18T06:07:59.343Z,18.57
2018-06-18T06:10:04.092Z,18.78
2018-06-18T06:12:09.840Z,18.84
2018-06-18T06:14:14.618Z,18.67
2018-06-18T06:16:19.306Z,18.58
2018-06-18T06:18:24.012Z,18.59
2018-06-18T06:20:28.834Z,18.69
2018-06-18T06:22:33.552Z,18.75
2018-06-18T06:24:38.171Z,18.68
2018-06-18T06:26:42.867Z,18.72
2018-06-18T06:28:47.578Z,18.55
2018-06-18T06:30:52.368Z,18.75
2018-06-18T06:32:57.146Z,18.83
2018-06-18T06:35:11.430Z,18.89
2018-06-18T06:37:16.381Z,18.95
2018-06-18T06:39:21.933Z,18.87
2018-06-18T06:41:29.173Z,18.91
2018-06-18T06:43:33.931Z,18.77
2018-06-18T06:45:38.644Z,18.71
2018-06-18T06:47:43.399Z,18.61
2018-06-18T06:49:48.151Z,18.53
2018-06-18T06:51:53.199Z,18.77
2018-06-18T06:53:57.884Z,18.82
2018-06-18T06:56:02.584Z,18.91
2018-06-18T06:58:07.485Z,19.07
2018-06-18T07:00:13.822Z,19.21
2018-06-18T07:02:19.005Z,19.43
2018-06-18T07:04:23.944Z,19.55
2018-06-18T07:06:28.669Z,19.48
2018-06-18T07:08:33.601Z,19.63
2018-06-18T07:10:38.370Z,19.62
2018-06-18T07:12:43.191Z,19.42
2018-06-18T07:14:47.936Z,19.42
2018-06-18T07:16:52.826Z,19.52
2018-06-18T07:18:57.580Z,19.94
2018-06-18T07:21:02.476Z,20.11
2018-06-18T07:23:07.229Z,20.20
2018-06-18T07:25:12.020Z,20.21
2018-06-18T07:27:16.685Z,20.11
2018-06-18T07:29:21.519Z,20.36
2018-06-18T07:31:27.174Z,20.17
2018-06-18T07:33:32.140Z,20.33
2018-06-18T07:35:36.906Z,20.52
2018-06-18T07:37:41.297Z,20.63
2018-06-18T07:39:46.044Z,20.53
2018-06-18T07:41:50.958Z,20.53
2018-06-18T07:43:55.635Z,20.63
2018-06-18T07:46:00.232Z,20.50
2018-06-18T07:48:04.930Z,20.32
2018-06-18T07:50:10.002Z,20.42
2018-06-18T07:52:14.679Z,20.39
2018-06-18T07:54:19.478Z,20.35
2018-06-18T07:56:24.177Z,20.47
2018-06-18T07:58:29.121Z,20.19
2018-06-18T08:00:33.833Z,20.25
2018-06-18T08:02:38.552Z,20.37
2018-06-18T08:04:43.634Z,20.56
2018-06-18T08:06:48.541Z,20.70
2018-06-18T08:08:53.449Z,20.50
2018-06-18T08:10:58.445Z,20.47
2018-06-18T08:13:03.071Z,20.80
2018-06-18T08:15:07.836Z,20.98
2018-06-18T08:17:12.557Z,20.59
2018-06-18T08:19:17.379Z,20.82
2018-06-18T08:21:22.257Z,20.91
2018-06-18T08:23:26.986Z,21.29
2018-06-18T08:25:31.822Z,21.11
2018-06-18T08:27:36.576Z,21.23
2018-06-18T08:29:41.267Z,21.42
2018-06-18T08:31:45.990Z,21.39
2018-06-18T08:33:50.777Z,21.61
2018-06-18T08:35:55.522Z,21.43
2018-06-18T08:38:00.230Z,20.88
2018-06-18T08:40:05.281Z,20.74
2018-06-18T08:42:10.256Z,21.06
2018-06-18T08:44:14.886Z,21.37
2018-06-18T08:46:19.654Z,21.66
2018-06-18T08:49:32.561Z,21.59
2018-06-18T08:51:42.572Z,21.62
2018-06-18T08:55:53.754Z,21.68
2018-06-18T08:58:03.577Z,21.82
2018-06-18T09:00:13.332Z,21.86
2018-06-18T09:02:22.245Z,21.97
2018-06-18T09:04:31.995Z,22.33
2018-06-18T09:06:36.721Z,22.12
2018-06-18T09:08:47.070Z,22.20
2018-06-18T09:10:51.994Z,22.05
2018-06-18T09:12:56.898Z,21.84
2018-06-18T09:15:01.817Z,21.66
2018-06-18T09:17:06.593Z,21.19
2018-06-18T09:19:11.232Z,21.33
2018-06-18T09:21:15.901Z,20.97
2018-06-18T09:23:20.704Z,20.43
2018-06-18T09:25:25.619Z,20.98
2018-06-18T09:27:30.340Z,21.23
2018-06-18T09:29:35.922Z,21.31
2018-06-18T09:31:45.900Z,21.02
2018-06-18T09:33:50.688Z,21.13
2018-06-18T09:35:55.489Z,21.62
2018-06-18T09:38:00.370Z,21.64
2018-06-18T09:40:05.695Z,21.72
2018-06-18T09:42:10.569Z,21.89
2018-06-18T09:44:15.362Z,22.04
2018-06-18T09:46:20.274Z,21.86
2018-06-18T09:48:29.748Z,21.85
2018-06-18T09:50:39.471Z,22.20
2018-06-18T09:54:51.267Z,22.06
2018-06-18T09:57:01.094Z,21.70
2018-06-18T09:59:10.948Z,21.94
2018-06-18T10:01:33.558Z,22.12
2018-06-18T10:03:38.261Z,22.12
2018-06-18T10:05:43.054Z,22.31
2018-06-18T10:07:47.776Z,22.50
2018-06-18T10:09:52.511Z,22.49
2018-06-18T10:11:57.240Z,22.41
2018-06-18T10:14:02.527Z,22.44
2018-06-18T10:16:08.000Z,22.68
2018-06-18T10:18:12.763Z,22.41
2018-06-18T10:20:17.808Z,22.45
2018-06-18T10:22:22.555Z,22.21
2018-06-18T10:24:27.253Z,22.38
2018-06-18T10:26:32.021Z,22.03
2018-06-18T10:28:36.869Z,22.07
2018-06-18T10:30:41.746Z,22.07
2018-06-18T10:32:51.484Z,22.05
2018-06-18T10:35:01.334Z,22.41
2018-06-18T10:37:11.108Z,22.00
2018-06-18T10:39:20.854Z,21.95
2018-06-18T10:41:30.753Z,21.85
2018-06-18T10:43:36.682Z,21.95
2018-06-18T10:45:41.521Z,21.89
2018-06-18T10:47:46.264Z,22.14
2018-06-18T10:49:51.066Z,22.12
2018-06-18T10:51:55.815Z,22.19
2018-06-18T10:54:00.709Z,22.50
2018-06-18T10:56:05.700Z,22.32
2018-06-18T10:58:10.627Z,22.60
2018-06-18T11:00:22.438Z,22.53
2018-06-18T11:02:28.430Z,22.26
2018-06-18T11:04:33.540Z,22.40
2018-06-18T11:06:38.722Z,22.16
2018-06-18T11:08:43.515Z,22.00
2018-06-18T11:10:48.286Z,22.37
2018-06-18T11:12:53.053Z,22.38
2018-06-18T11:14:57.817Z,22.11
2018-06-18T11:17:08.000Z,22.29
2018-06-18T11:19:18.219Z,22.47
2018-06-18T11:21:28.026Z,22.65
2018-06-18T11:23:37.894Z,22.46
2018-06-18T11:25:47.827Z,22.11
2018-06-18T11:27:52.660Z,22.12
2018-06-18T11:29:57.542Z,22.34
2018-06-18T11:32:02.448Z,22.04
2018-06-18T11:34:07.257Z,22.13
2018-06-18T11:36:12.002Z,22.18
2018-06-18T11:38:16.403Z,22.15
2018-06-18T11:40:21.114Z,22.37
2018-06-18T11:42:25.863Z,22.26
2018-06-18T11:44:30.702Z,22.20
2018-06-18T11:46:35.453Z,22.38
2018-06-18T11:48:40.223Z,22.45
2018-06-18T11:50:45.024Z,22.64
2018-06-18T11:52:49.972Z,22.66
2018-06-18T11:54:55.140Z,22.50
2018-06-18T11:57:00.142Z,22.59
2018-06-18T11:59:10.120Z,22.24
2018-06-18T12:01:19.979Z,22.44
2018-06-18T12:03:29.853Z,22.05
2018-06-18T12:05:39.785Z,22.59
2018-06-18T12:07:49.707Z,22.34
2018-06-18T12:09:54.900Z,22.08
2018-06-18T12:12:00.013Z,21.94
2018-06-18T12:14:05.884Z,22.16
2018-06-18T12:16:10.937Z,22.11
2018-06-18T12:18:15.703Z,21.87
2018-06-18T12:20:20.422Z,22.09
2018-06-18T12:22:25.203Z,22.26
2018-06-18T12:24:30.087Z,22.38
2018-06-18T12:26:35.068Z,22.18
2018-06-18T12:28:39.910Z,22.51
2018-06-18T12:30:44.894Z,22.35
2018-06-18T12:32:49.802Z,22.24
2018-06-18T12:34:54.847Z,22.16
2018-06-18T12:36:59.748Z,22.21
2018-06-18T12:39:06.526Z,22.27
2018-06-18T12:41:11.649Z,22.29
2018-06-18T12:43:20.278Z,22.52
2018-06-18T12:45:30.133Z,22.30
2018-06-18T12:47:40.078Z,22.51
2018-06-18T12:49:49.876Z,22.80
2018-06-18T12:51:59.638Z,22.64
2018-06-18T12:54:09.526Z,22.36
2018-06-18T12:56:19.555Z,22.72
2018-06-18T12:58:24.399Z,22.64
2018-06-18T13:00:29.501Z,22.75
2018-06-18T13:02:40.294Z,22.69
2018-06-18T13:04:51.172Z,23.02
2018-06-18T13:06:55.961Z,22.59
2018-06-18T13:09:00.790Z,23.02
2018-06-18T13:11:05.691Z,22.95
2018-06-18T13:13:10.757Z,22.78
2018-06-18T13:15:15.596Z,22.49
2018-06-18T13:17:20.417Z,22.45
2018-06-18T13:19:25.375Z,22.02
2018-06-18T13:21:30.165Z,21.56
2018-06-18T13:23:35.314Z,21.62
2018-06-18T13:25:40.072Z,21.36
2018-06-18T13:27:49.841Z,21.92
2018-06-18T13:29:54.619Z,21.65
2018-06-18T13:31:59.388Z,22.13
2018-06-18T13:34:04.120Z,22.40
2018-06-18T13:36:08.898Z,22.51
2018-06-18T13:38:18.745Z,22.40
2018-06-18T13:40:28.658Z,22.83
2018-06-18T13:42:38.493Z,22.58
2018-06-18T13:44:48.255Z,23.23
2018-06-18T13:46:58.020Z,22.77
2018-06-18T13:49:03.108Z,22.63
2018-06-18T13:51:08.176Z,22.68
2018-06-18T13:53:13.482Z,22.91
2018-06-18T13:55:19.228Z,22.87
2018-06-18T13:57:24.476Z,22.82
2018-06-18T13:59:29.297Z,22.65
2018-06-18T14:01:34.187Z,22.63
2018-06-18T14:03:39.159Z,22.25
2018-06-18T14:05:44.149Z,22.37
2018-06-18T14:07:49.838Z,21.78
2018-06-18T14:09:55.489Z,21.76
2018-06-18T14:12:01.917Z,21.49
2018-06-18T14:14:07.233Z,21.85
2018-06-18T14:16:12.174Z,21.76
2018-06-18T14:18:17.012Z,21.67
2018-06-18T14:20:23.531Z,21.82
2018-06-18T14:22:28.368Z,21.60
2018-06-18T14:24:33.379Z,21.82
2018-06-18T14:26:38.236Z,21.90
2018-06-18T14:28:43.477Z,22.30
2018-06-18T14:30:53.387Z,22.33
2018-06-18T14:33:03.198Z,22.61
2018-06-18T14:35:13.180Z,22.81
2018-06-18T14:37:23.152Z,23.10
2018-06-18T14:40:03.476Z,23.40
2018-06-18T14:42:09.668Z,23.81
2018-06-18T14:44:14.609Z,23.86
2018-06-18T14:46:20.248Z,24.22
2018-06-18T14:48:26.085Z,23.89
2018-06-18T14:50:30.859Z,23.74
2018-06-18T14:52:35.715Z,23.59
2018-06-18T14:54:40.542Z,23.42
2018-06-18T14:56:45.519Z,23.31
2018-06-18T15:01:20.918Z,23.29
2018-06-18T15:03:25.704Z,23.27
2018-06-18T15:05:34.900Z,23.46
2018-06-18T15:07:40.167Z,23.12
2018-06-18T15:09:44.891Z,23.07
2018-06-18T15:11:49.661Z,23.17
2018-06-18T15:13:54.503Z,22.95
2018-06-18T15:16:04.347Z,23.10
2018-06-18T15:18:09.235Z,23.19
2018-06-18T15:20:14.187Z,23.05
2018-06-18T15:22:19.268Z,22.95
2018-06-18T15:24:38.520Z,22.90
2018-06-18T15:28:54.809Z,22.54
2018-06-18T15:30:59.528Z,22.56
2018-06-18T15:33:04.403Z,22.68
2018-06-18T15:35:09.189Z,22.84
2018-06-18T15:37:14.311Z,22.70
2018-06-18T15:39:19.104Z,23.33
2018-06-18T15:41:25.038Z,23.57
2018-06-18T15:43:29.768Z,23.42
2018-06-18T15:45:34.519Z,23.44
2018-06-18T15:47:39.299Z,23.52
2018-06-18T15:49:44.252Z,23.22
2018-06-18T15:51:49.163Z,23.22
2018-06-18T15:53:54.088Z,23.23
2018-06-18T15:55:58.839Z,23.17
2018-06-18T15:58:03.928Z,23.19
2018-06-18T16:00:08.970Z,22.96
2018-06-18T16:02:13.661Z,22.77
2018-06-18T16:04:18.532Z,23.00
2018-06-18T16:06:23.328Z,22.84
2018-06-18T16:08:28.092Z,22.52
2018-06-18T16:10:32.894Z,22.76
2018-06-18T16:12:37.683Z,22.91
2018-06-18T16:14:42.478Z,22.97
2018-06-18T16:16:47.178Z,22.91
2018-06-18T16:18:52.097Z,23.62
2018-06-18T16:20:56.705Z,23.21
2018-06-18T16:23:01.350Z,23.33
2018-06-18T16:25:06.552Z,23.16
2018-06-18T16:27:11.322Z,23.05
2018-06-18T16:29:16.159Z,23.05
2018-06-18T16:31:21.225Z,23.34
2018-06-18T16:33:26.013Z,22.75
2018-06-18T16:35:31.014Z,22.96
2018-06-18T16:37:36.029Z,22.98
2018-06-18T16:39:40.932Z,22.65
2018-06-18T16:41:45.741Z,22.70
2018-06-18T16:43:50.629Z,22.95
2018-06-18T16:45:56.080Z,22.62
2018-06-18T16:48:00.915Z,22.79
2018-06-18T16:50:05.862Z,22.77
2018-06-18T16:52:10.662Z,23.03
2018-06-18T16:54:15.922Z,23.45
2018-06-18T16:56:20.700Z,23.26
2018-06-18T16:58:25.540Z,23.10
2018-06-18T17:00:30.475Z,23.15
2018-06-18T17:02:35.824Z,22.95
2018-06-18T17:04:40.560Z,23.01
2018-06-18T17:06:46.179Z,23.25
2018-06-18T17:08:51.034Z,23.54
2018-06-18T17:10:55.905Z,23.31
2018-06-18T17:13:00.631Z,23.38
2018-06-18T17:15:05.805Z,23.82
2018-06-18T17:17:10.622Z,24.09
2018-06-18T17:19:15.408Z,24.24
2018-06-18T17:21:20.297Z,24.54
2018-06-18T17:23:25.275Z,24.51
2018-06-18T17:25:30.258Z,24.48
2018-06-18T17:27:35.377Z,24.53
2018-06-18T17:29:40.133Z,24.43
2018-06-18T17:31:45.087Z,25.65
2018-06-18T17:33:49.829Z,25.29
2018-06-18T17:35:54.589Z,25.58
2018-06-18T17:37:59.380Z,25.40
2018-06-18T17:40:04.428Z,25.02
2018-06-18T17:42:09.404Z,25.12
2018-06-18T17:44:14.373Z,26.03
2018-06-18T17:46:19.167Z,26.27
2018-06-18T17:48:24.023Z,25.36
2018-06-18T17:50:29.044Z,25.27
2018-06-18T17:52:33.649Z,25.32
2018-06-18T17:54:38.453Z,25.22
2018-06-18T17:56:43.231Z,24.99
2018-06-18T17:58:48.204Z,24.99
2018-06-18T18:00:52.897Z,24.64
2018-06-18T18:02:57.638Z,24.46
2018-06-18T18:05:02.741Z,24.49
2018-06-18T18:07:07.638Z,24.64
2018-06-18T18:09:12.547Z,24.50
2018-06-18T18:11:17.366Z,24.37
2018-06-18T18:13:22.229Z,24.68
2018-06-18T18:15:26.896Z,24.56
2018-06-18T18:17:31.752Z,24.57
2018-06-18T18:19:36.717Z,24.27
2018-06-18T18:21:41.807Z,24.10
2018-06-18T18:23:47.150Z,23.89
2018-06-18T18:25:52.049Z,23.50
2018-06-18T18:27:57.756Z,23.29
2018-06-18T18:30:02.583Z,23.18
2018-06-18T18:32:07.446Z,22.99
2018-06-18T18:34:12.431Z,22.90
2018-06-18T18:36:17.239Z,22.80
2018-06-18T18:38:22.150Z,22.94
2018-06-18T18:40:26.984Z,22.85
2018-06-18T18:42:31.967Z,22.80
2018-06-18T18:44:37.029Z,22.82
2018-06-18T18:46:41.963Z,23.02
2018-06-18T18:48:46.994Z,22.81
2018-06-18T18:50:52.375Z,22.51
2018-06-18T18:52:59.937Z,22.58
2018-06-18T18:55:48.036Z,22.50
2018-06-18T18:58:09.543Z,22.29
2018-06-18T19:00:14.947Z,22.37
2018-06-18T19:02:20.012Z,22.41
2018-06-18T19:04:31.929Z,22.57
2018-06-18T19:06:37.019Z,22.21
2018-06-18T19:08:42.094Z,22.24
2018-06-18T19:10:48.377Z,22.30
2018-06-18T19:12:56.877Z,21.92
2018-06-18T19:15:02.336Z,21.79
2018-06-18T19:17:10.693Z,21.76
2018-06-18T19:19:16.873Z,21.98
2018-06-18T19:21:22.353Z,21.65
2018-06-18T19:23:28.311Z,21.78
2018-06-18T19:25:35.124Z,21.89
2018-06-18T19:27:42.289Z,20.64
2018-06-18T19:29:47.888Z,21.69
2018-06-18T19:31:54.225Z,21.43
2018-06-18T19:34:32.959Z,21.38
2018-06-18T19:36:39.906Z,21.50
2018-06-18T19:38:45.068Z,21.33
2018-06-18T19:40:51.435Z,21.30
2018-06-18T19:42:56.869Z,21.50
2018-06-18T19:45:02.150Z,21.30
2018-06-18T19:47:41.622Z,21.04
2018-06-18T19:49:46.829Z,21.13
2018-06-18T19:51:53.191Z,21.07
2018-06-18T19:53:58.229Z,20.99
2018-06-18T19:56:03.391Z,21.04
2018-06-18T19:58:08.255Z,20.83
2018-06-18T20:00:13.954Z,20.81
2018-06-18T20:02:19.819Z,20.69
2018-06-18T20:04:25.492Z,20.76
2018-06-18T20:06:31.444Z,20.73
2018-06-18T20:08:36.501Z,20.74
2018-06-18T20:10:41.299Z,20.64
2018-06-18T20:12:46.282Z,20.81
2018-06-18T20:14:52.678Z,20.88
2018-06-18T20:16:57.713Z,20.50
2018-06-18T20:19:03.545Z,20.17
2018-06-18T20:21:10.063Z,20.65
2018-06-18T20:23:18.583Z,20.64
2018-06-18T20:25:37.203Z,20.56
2018-06-18T20:27:47.589Z,20.35
2018-06-18T20:29:52.732Z,20.57
2018-06-18T20:31:57.958Z,20.80
2018-06-18T20:34:03.013Z,20.30
2018-06-18T20:36:13.210Z,20.77
2018-06-18T20:38:18.420Z,20.42
2018-06-18T20:40:23.633Z,20.59
2018-06-18T20:42:28.976Z,20.36
2018-06-18T20:44:34.243Z,20.53
2018-06-18T20:46:40.576Z,20.89
2018-06-18T20:48:47.851Z,20.79
2018-06-18T20:50:53.049Z,20.39
2018-06-18T20:52:59.326Z,20.21
2018-06-18T20:55:04.956Z,20.15
2018-06-18T20:57:10.130Z,19.32
2018-06-18T20:59:15.832Z,20.57
2018-06-18T21:01:20.593Z,20.24
2018-06-18T21:03:25.836Z,20.31
2018-06-18T21:05:30.774Z,20.38
2018-06-18T21:07:35.937Z,20.41
2018-06-18T21:09:40.761Z,20.68
2018-06-18T21:11:45.856Z,20.61
2018-06-18T21:13:50.898Z,20.39
2018-06-18T21:15:55.691Z,20.43
2018-06-18T21:18:00.955Z,20.19
2018-06-18T21:20:05.821Z,20.38
2018-06-18T21:22:10.575Z,20.37
2018-06-18T21:24:15.655Z,20.40
2018-06-18T21:26:20.512Z,20.40
2018-06-18T21:28:25.248Z,20.24
2018-06-18T21:30:30.302Z,20.53
2018-06-18T21:32:34.989Z,20.47
2018-06-18T21:34:40.283Z,20.37
2018-06-18T21:36:45.300Z,20.22
2018-06-18T21:38:50.084Z,19.94
2018-06-18T21:40:55.185Z,20.12
2018-06-18T21:42:59.962Z,20.17
2018-06-18T21:45:13.644Z,20.09
2018-06-18T21:47:19.194Z,19.96
2018-06-18T21:49:24.073Z,19.72
2018-06-18T21:51:29.345Z,18.85
2018-06-18T21:53:34.353Z,19.54
2018-06-18T21:55:39.184Z,20.01
2018-06-18T21:57:44.049Z,20.24
2018-06-18T21:59:49.138Z,20.07
2018-06-18T22:01:53.829Z,20.00
2018-06-18T22:03:58.654Z,19.90
2018-06-18T22:06:03.589Z,20.11
2018-06-18T22:08:12.142Z,19.78
2018-06-18T22:10:17.137Z,19.85
2018-06-18T22:12:21.943Z,19.79
2018-06-18T22:14:26.904Z,19.71
2018-06-18T22:16:31.679Z,19.67
2018-06-18T22:18:36.543Z,19.64
2018-06-18T22:20:41.305Z,19.74
2018-06-18T22:22:46.152Z,19.58
2018-06-18T22:24:51.186Z,19.72
2018-06-18T22:26:56.077Z,19.47
2018-06-18T22:29:01.068Z,19.65
2018-06-18T22:31:06.722Z,19.20
2018-06-18T22:33:14.178Z,19.38
2018-06-18T22:35:19.070Z,19.39
2018-06-18T22:37:24.095Z,19.40
2018-06-18T22:39:29.123Z,19.34
2018-06-18T22:41:34.138Z,19.30
2018-06-18T22:43:39.209Z,19.23
2018-06-18T22:45:44.057Z,19.55
2018-06-18T22:47:48.827Z,19.48
2018-06-18T22:49:53.696Z,19.26
2018-06-18T22:51:58.544Z,18.53
2018-06-18T22:54:04.000Z,19.29
2018-06-18T22:56:09.283Z,18.87
2018-06-18T22:58:14.191Z,19.01
2018-06-18T23:00:19.083Z,18.99
2018-06-18T23:02:29.354Z,19.21
2018-06-18T23:04:34.116Z,18.80
2018-06-18T23:06:39.115Z,18.73
2018-06-18T23:08:43.883Z,18.82
2018-06-18T23:10:49.275Z,18.81
2018-06-18T23:12:54.083Z,18.59
2018-06-18T23:14:59.217Z,18.95
2018-06-18T23:17:04.282Z,18.77
2018-06-18T23:19:08.937Z,18.71
2018-06-18T23:21:13.842Z,18.91
2018-06-18T23:23:18.472Z,18.78
2018-06-18T23:25:23.436Z,18.38
2018-06-18T23:27:28.235Z,18.45
2018-06-18T23:29:33.066Z,18.38
2018-06-18T23:31:37.785Z,18.54
2018-06-18T23:33:42.569Z,18.30
2018-06-18T23:35:47.281Z,18.45
2018-06-18T23:37:52.001Z,18.44
2018-06-18T23:39:56.734Z,18.49
2018-06-18T23:42:01.469Z,18.38
2018-06-18T23:44:06.230Z,18.29
2018-06-18T23:46:10.992Z,18.28
2018-06-18T23:48:15.617Z,18.20
2018-06-18T23:50:20.266Z,18.23
2018-06-18T23:52:25.030Z,18.38
2018-06-18T23:54:29.772Z,17.90
2018-06-18T23:56:34.431Z,18.16
2018-06-18T23:58:39.137Z,18.18
